MKJS 231100Z 15005KT 9999 FEW022 25/20 Q1016
MKJP 231100Z 10019KT 9999 FW024 27/17 Q1016
MWCR 231100Z 10004KT 9999 FEW018 26/23 Q1016
MWCB 230000Z 10008KT 9999 FEW016 26/23 Q1017